sensor_id;sensor_type;location;lat;lon;timestamp;P1;durP1;ratioP1;P2;durP2;ratioP2
18883;SDS011;9574;47.282;9.640;2023-02-24T00:01:36;7.80;;;3.17;;
18883;SDS011;9574;47.282;9.640;2023-02-24T00:04:05;7.43;;;3.37;;
18883;SDS011;9574;47.282;9.640;2023-02-24T00:06:34;8.53;;;3.37;;
18883;SDS011;9574;47.282;9.640;2023-02-24T00:09:03;8.13;;;3.33;;
18883;SDS011;9574;47.282;9.640;2023-02-24T00:11:32;4.93;;;2.83;;
18883;SDS011;9574;47.282;9.640;2023-02-24T00:14:00;7.20;;;2.63;;
18883;SDS011;9574;47.282;9.640;2023-02-24T00:16:31;5.67;;;2.73;;
18883;SDS011;9574;47.282;9.640;2023-02-24T00:18:59;5.93;;;3.03;;
18883;SDS011;9574;47.282;9.640;2023-02-24T00:21:27;8.07;;;2.53;;
18883;SDS011;9574;47.282;9.640;2023-02-24T00:23:55;5.17;;;2.60;;
18883;SDS011;9574;47.282;9.640;2023-02-24T00:26:24;9.17;;;3.20;;
18883;SDS011;9574;47.282;9.640;2023-02-24T00:28:54;6.63;;;3.20;;
18883;SDS011;9574;47.282;9.640;2023-02-24T00:31:21;3.60;;;2.30;;
18883;SDS011;9574;47.282;9.640;2023-02-24T00:33:50;5.90;;;2.90;;
18883;SDS011;9574;47.282;9.640;2023-02-24T00:36:20;8.27;;;3.47;;
18883;SDS011;9574;47.282;9.640;2023-02-24T00:38:49;5.00;;;2.47;;
18883;SDS011;9574;47.282;9.640;2023-02-24T00:41:19;13.40;;;10.17;;
18883;SDS011;9574;47.282;9.640;2023-02-24T00:43:49;11.17;;;8.83;;
18883;SDS011;9574;47.282;9.640;2023-02-24T00:46:17;14.33;;;3.90;;
18883;SDS011;9574;47.282;9.640;2023-02-24T00:48:45;5.57;;;3.27;;
18883;SDS011;9574;47.282;9.640;2023-02-24T00:51:15;5.77;;;2.50;;
18883;SDS011;9574;47.282;9.640;2023-02-24T00:53:48;7.73;;;2.53;;
18883;SDS011;9574;47.282;9.640;2023-02-24T00:56:16;4.37;;;2.50;;
18883;SDS011;9574;47.282;9.640;2023-02-24T00:58:43;4.93;;;2.27;;
18883;SDS011;9574;47.282;9.640;2023-02-24T01:01:10;3.73;;;2.20;;
18883;SDS011;9574;47.282;9.640;2023-02-24T01:03:39;6.03;;;2.30;;
18883;SDS011;9574;47.282;9.640;2023-02-24T01:06:06;7.03;;;2.23;;
18883;SDS011;9574;47.282;9.640;2023-02-24T01:08:36;6.77;;;2.63;;
18883;SDS011;9574;47.282;9.640;2023-02-24T01:11:04;5.63;;;2.33;;
18883;SDS011;9574;47.282;9.640;2023-02-24T01:13:49;3.07;;;1.90;;
18883;SDS011;9574;47.282;9.640;2023-02-24T01:16:17;5.40;;;2.73;;
18883;SDS011;9574;47.282;9.640;2023-02-24T01:18:44;5.67;;;2.60;;
18883;SDS011;9574;47.282;9.640;2023-02-24T01:21:12;5.73;;;1.53;;
18883;SDS011;9574;47.282;9.640;2023-02-24T01:23:41;5.37;;;2.27;;
18883;SDS011;9574;47.282;9.640;2023-02-24T01:26:10;4.30;;;2.00;;
18883;SDS011;9574;47.282;9.640;2023-02-24T01:28:37;6.83;;;2.20;;
18883;SDS011;9574;47.282;9.640;2023-02-24T01:31:04;4.67;;;2.20;;
18883;SDS011;9574;47.282;9.640;2023-02-24T01:33:31;4.83;;;1.93;;
18883;SDS011;9574;47.282;9.640;2023-02-24T01:36:10;10.20;;;2.50;;
18883;SDS011;9574;47.282;9.640;2023-02-24T01:38:40;3.43;;;2.37;;
18883;SDS011;9574;47.282;9.640;2023-02-24T01:41:08;6.73;;;2.60;;
18883;SDS011;9574;47.282;9.640;2023-02-24T01:43:57;3.30;;;1.83;;
18883;SDS011;9574;47.282;9.640;2023-02-24T01:46:27;6.37;;;2.10;;
18883;SDS011;9574;47.282;9.640;2023-02-24T01:48:58;6.70;;;2.23;;
18883;SDS011;9574;47.282;9.640;2023-02-24T01:51:29;6.80;;;2.10;;
18883;SDS011;9574;47.282;9.640;2023-02-24T01:54:01;4.57;;;2.07;;
18883;SDS011;9574;47.282;9.640;2023-02-24T01:56:30;3.90;;;2.17;;
18883;SDS011;9574;47.282;9.640;2023-02-24T01:58:58;5.33;;;2.47;;
18883;SDS011;9574;47.282;9.640;2023-02-24T02:01:26;7.10;;;2.60;;
18883;SDS011;9574;47.282;9.640;2023-02-24T02:03:55;6.87;;;2.60;;
18883;SDS011;9574;47.282;9.640;2023-02-24T02:06:28;5.23;;;2.70;;
18883;SDS011;9574;47.282;9.640;2023-02-24T02:08:55;5.10;;;2.70;;
18883;SDS011;9574;47.282;9.640;2023-02-24T02:11:24;8.03;;;2.23;;
18883;SDS011;9574;47.282;9.640;2023-02-24T02:13:51;6.27;;;2.33;;
18883;SDS011;9574;47.282;9.640;2023-02-24T02:16:23;6.33;;;2.40;;
18883;SDS011;9574;47.282;9.640;2023-02-24T02:19:03;5.67;;;2.37;;
18883;SDS011;9574;47.282;9.640;2023-02-24T02:21:53;3.87;;;2.67;;
18883;SDS011;9574;47.282;9.640;2023-02-24T02:24:44;6.27;;;2.10;;
18883;SDS011;9574;47.282;9.640;2023-02-24T02:27:27;4.43;;;2.20;;
18883;SDS011;9574;47.282;9.640;2023-02-24T02:33:46;5.47;;;2.33;;
18883;SDS011;9574;47.282;9.640;2023-02-24T02:36:42;9.73;;;2.43;;
18883;SDS011;9574;47.282;9.640;2023-02-24T02:39:21;4.50;;;2.30;;
18883;SDS011;9574;47.282;9.640;2023-02-24T02:42:00;4.03;;;2.30;;
18883;SDS011;9574;47.282;9.640;2023-02-24T02:44:39;3.67;;;2.30;;
18883;SDS011;9574;47.282;9.640;2023-02-24T02:47:21;4.13;;;2.00;;
18883;SDS011;9574;47.282;9.640;2023-02-24T02:49:54;5.07;;;2.20;;
18883;SDS011;9574;47.282;9.640;2023-02-24T02:52:27;8.73;;;3.37;;
18883;SDS011;9574;47.282;9.640;2023-02-24T02:55:02;2.90;;;1.90;;
18883;SDS011;9574;47.282;9.640;2023-02-24T02:57:35;4.43;;;2.40;;
18883;SDS011;9574;47.282;9.640;2023-02-24T03:00:07;8.50;;;2.43;;
18883;SDS011;9574;47.282;9.640;2023-02-24T03:02:38;4.67;;;2.20;;
18883;SDS011;9574;47.282;9.640;2023-02-24T03:05:10;2.87;;;1.97;;
18883;SDS011;9574;47.282;9.640;2023-02-24T03:07:43;3.37;;;2.43;;
18883;SDS011;9574;47.282;9.640;2023-02-24T03:10:14;3.90;;;1.93;;
18883;SDS011;9574;47.282;9.640;2023-02-24T03:12:47;4.17;;;2.30;;
18883;SDS011;9574;47.282;9.640;2023-02-24T03:15:17;6.23;;;3.03;;
18883;SDS011;9574;47.282;9.640;2023-02-24T03:17:48;4.13;;;2.30;;
18883;SDS011;9574;47.282;9.640;2023-02-24T03:20:22;5.20;;;3.13;;
18883;SDS011;9574;47.282;9.640;2023-02-24T03:22:54;7.90;;;2.53;;
18883;SDS011;9574;47.282;9.640;2023-02-24T03:25:26;3.13;;;2.00;;
18883;SDS011;9574;47.282;9.640;2023-02-24T03:28:04;7.77;;;2.37;;
18883;SDS011;9574;47.282;9.640;2023-02-24T03:30:38;3.90;;;2.30;;
18883;SDS011;9574;47.282;9.640;2023-02-24T03:33:09;6.43;;;2.23;;
18883;SDS011;9574;47.282;9.640;2023-02-24T03:35:45;2.60;;;2.13;;
18883;SDS011;9574;47.282;9.640;2023-02-24T03:38:15;5.30;;;2.50;;
18883;SDS011;9574;47.282;9.640;2023-02-24T03:40:44;3.83;;;2.10;;
18883;SDS011;9574;47.282;9.640;2023-02-24T03:43:12;6.20;;;2.47;;
18883;SDS011;9574;47.282;9.640;2023-02-24T03:45:44;5.00;;;2.37;;
18883;SDS011;9574;47.282;9.640;2023-02-24T03:48:11;4.23;;;2.40;;
18883;SDS011;9574;47.282;9.640;2023-02-24T03:50:39;5.87;;;2.50;;
18883;SDS011;9574;47.282;9.640;2023-02-24T03:53:12;5.63;;;2.30;;
18883;SDS011;9574;47.282;9.640;2023-02-24T03:55:56;5.83;;;2.63;;
18883;SDS011;9574;47.282;9.640;2023-02-24T03:58:32;4.53;;;1.80;;
18883;SDS011;9574;47.282;9.640;2023-02-24T04:01:12;6.87;;;2.23;;
18883;SDS011;9574;47.282;9.640;2023-02-24T04:03:46;8.27;;;2.20;;
18883;SDS011;9574;47.282;9.640;2023-02-24T04:06:19;7.83;;;2.37;;
18883;SDS011;9574;47.282;9.640;2023-02-24T04:08:55;4.47;;;1.97;;
18883;SDS011;9574;47.282;9.640;2023-02-24T04:11:29;4.33;;;1.83;;
18883;SDS011;9574;47.282;9.640;2023-02-24T04:14:02;5.00;;;2.40;;
18883;SDS011;9574;47.282;9.640;2023-02-24T04:16:34;3.90;;;1.77;;
18883;SDS011;9574;47.282;9.640;2023-02-24T04:19:08;6.90;;;2.20;;
18883;SDS011;9574;47.282;9.640;2023-02-24T04:21:40;3.93;;;2.33;;
18883;SDS011;9574;47.282;9.640;2023-02-24T04:24:14;3.10;;;2.00;;
18883;SDS011;9574;47.282;9.640;2023-02-24T04:26:45;5.80;;;2.17;;
18883;SDS011;9574;47.282;9.640;2023-02-24T04:29:14;4.03;;;2.23;;
18883;SDS011;9574;47.282;9.640;2023-02-24T04:31:47;3.83;;;2.10;;
18883;SDS011;9574;47.282;9.640;2023-02-24T04:34:18;4.30;;;2.43;;
18883;SDS011;9574;47.282;9.640;2023-02-24T04:36:45;5.00;;;1.80;;
18883;SDS011;9574;47.282;9.640;2023-02-24T04:39:16;6.90;;;1.97;;
18883;SDS011;9574;47.282;9.640;2023-02-24T04:41:44;5.63;;;2.30;;
18883;SDS011;9574;47.282;9.640;2023-02-24T04:44:13;7.20;;;1.77;;
18883;SDS011;9574;47.282;9.640;2023-02-24T04:46:42;3.87;;;2.17;;
18883;SDS011;9574;47.282;9.640;2023-02-24T04:49:09;3.97;;;2.27;;
18883;SDS011;9574;47.282;9.640;2023-02-24T04:51:37;5.13;;;2.30;;
18883;SDS011;9574;47.282;9.640;2023-02-24T04:54:06;5.10;;;2.30;;
18883;SDS011;9574;47.282;9.640;2023-02-24T04:56:35;7.97;;;2.30;;
18883;SDS011;9574;47.282;9.640;2023-02-24T04:59:04;4.30;;;1.90;;
18883;SDS011;9574;47.282;9.640;2023-02-24T05:01:34;2.97;;;1.90;;
18883;SDS011;9574;47.282;9.640;2023-02-24T05:04:04;5.77;;;1.97;;
18883;SDS011;9574;47.282;9.640;2023-02-24T05:06:31;6.50;;;2.37;;
18883;SDS011;9574;47.282;9.640;2023-02-24T05:08:58;5.03;;;2.17;;
18883;SDS011;9574;47.282;9.640;2023-02-24T05:11:36;4.70;;;2.27;;
18883;SDS011;9574;47.282;9.640;2023-02-24T05:14:06;4.70;;;2.10;;
18883;SDS011;9574;47.282;9.640;2023-02-24T05:16:34;3.33;;;2.13;;
18883;SDS011;9574;47.282;9.640;2023-02-24T05:19:01;6.57;;;2.57;;
18883;SDS011;9574;47.282;9.640;2023-02-24T05:21:46;6.80;;;2.67;;
18883;SDS011;9574;47.282;9.640;2023-02-24T05:24:13;7.10;;;2.50;;
18883;SDS011;9574;47.282;9.640;2023-02-24T05:26:42;6.97;;;2.87;;
18883;SDS011;9574;47.282;9.640;2023-02-24T05:29:10;6.07;;;3.27;;
18883;SDS011;9574;47.282;9.640;2023-02-24T05:31:37;4.03;;;2.33;;
18883;SDS011;9574;47.282;9.640;2023-02-24T05:34:05;4.37;;;2.33;;
18883;SDS011;9574;47.282;9.640;2023-02-24T05:36:33;5.23;;;2.27;;
18883;SDS011;9574;47.282;9.640;2023-02-24T05:39:04;3.43;;;2.10;;
18883;SDS011;9574;47.282;9.640;2023-02-24T05:41:35;4.07;;;2.47;;
18883;SDS011;9574;47.282;9.640;2023-02-24T05:44:08;4.37;;;2.60;;
18883;SDS011;9574;47.282;9.640;2023-02-24T05:46:38;4.60;;;2.40;;
18883;SDS011;9574;47.282;9.640;2023-02-24T05:49:09;3.77;;;2.27;;
18883;SDS011;9574;47.282;9.640;2023-02-24T05:51:38;6.47;;;2.53;;
18883;SDS011;9574;47.282;9.640;2023-02-24T05:54:08;7.80;;;2.23;;
18883;SDS011;9574;47.282;9.640;2023-02-24T05:56:37;7.97;;;3.23;;
18883;SDS011;9574;47.282;9.640;2023-02-24T05:59:10;7.10;;;2.50;;
18883;SDS011;9574;47.282;9.640;2023-02-24T06:01:42;4.50;;;2.67;;
18883;SDS011;9574;47.282;9.640;2023-02-24T06:04:10;4.40;;;2.70;;
18883;SDS011;9574;47.282;9.640;2023-02-24T06:06:46;5.67;;;3.20;;
18883;SDS011;9574;47.282;9.640;2023-02-24T06:09:17;5.77;;;2.40;;
18883;SDS011;9574;47.282;9.640;2023-02-24T06:11:47;6.77;;;3.13;;
18883;SDS011;9574;47.282;9.640;2023-02-24T06:14:16;7.30;;;3.63;;
18883;SDS011;9574;47.282;9.640;2023-02-24T06:16:43;10.63;;;3.50;;
18883;SDS011;9574;47.282;9.640;2023-02-24T06:19:11;6.00;;;3.20;;
18883;SDS011;9574;47.282;9.640;2023-02-24T06:21:39;4.93;;;2.90;;
18883;SDS011;9574;47.282;9.640;2023-02-24T06:24:09;8.70;;;3.40;;
18883;SDS011;9574;47.282;9.640;2023-02-24T06:26:39;5.13;;;3.40;;
18883;SDS011;9574;47.282;9.640;2023-02-24T06:29:10;8.90;;;3.30;;
18883;SDS011;9574;47.282;9.640;2023-02-24T06:31:40;6.10;;;2.60;;
18883;SDS011;9574;47.282;9.640;2023-02-24T06:34:08;6.33;;;3.20;;
18883;SDS011;9574;47.282;9.640;2023-02-24T06:36:37;4.70;;;2.70;;
18883;SDS011;9574;47.282;9.640;2023-02-24T06:39:04;5.33;;;2.47;;
18883;SDS011;9574;47.282;9.640;2023-02-24T06:41:33;6.17;;;2.27;;
18883;SDS011;9574;47.282;9.640;2023-02-24T06:44:02;6.13;;;2.93;;
18883;SDS011;9574;47.282;9.640;2023-02-24T06:46:29;3.10;;;2.40;;
18883;SDS011;9574;47.282;9.640;2023-02-24T06:48:57;17.13;;;3.10;;
18883;SDS011;9574;47.282;9.640;2023-02-24T06:51:25;5.90;;;3.17;;
18883;SDS011;9574;47.282;9.640;2023-02-24T06:53:54;12.43;;;3.30;;
18883;SDS011;9574;47.282;9.640;2023-02-24T06:56:21;5.30;;;3.10;;
18883;SDS011;9574;47.282;9.640;2023-02-24T06:58:49;13.47;;;3.10;;
18883;SDS011;9574;47.282;9.640;2023-02-24T07:01:17;4.83;;;3.00;;
18883;SDS011;9574;47.282;9.640;2023-02-24T07:03:49;6.10;;;2.93;;
18883;SDS011;9574;47.282;9.640;2023-02-24T07:06:33;9.73;;;2.57;;
18883;SDS011;9574;47.282;9.640;2023-02-24T07:09:02;4.03;;;2.60;;
18883;SDS011;9574;47.282;9.640;2023-02-24T07:11:33;6.23;;;2.93;;
18883;SDS011;9574;47.282;9.640;2023-02-24T07:14:00;5.80;;;3.60;;
18883;SDS011;9574;47.282;9.640;2023-02-24T07:16:29;7.53;;;4.00;;
18883;SDS011;9574;47.282;9.640;2023-02-24T07:18:58;5.07;;;3.17;;
18883;SDS011;9574;47.282;9.640;2023-02-24T07:21:28;10.37;;;3.93;;
18883;SDS011;9574;47.282;9.640;2023-02-24T07:24:05;12.40;;;4.57;;
18883;SDS011;9574;47.282;9.640;2023-02-24T07:26:33;14.03;;;5.73;;
18883;SDS011;9574;47.282;9.640;2023-02-24T07:29:05;10.93;;;5.53;;
18883;SDS011;9574;47.282;9.640;2023-02-24T07:31:32;13.90;;;5.33;;
18883;SDS011;9574;47.282;9.640;2023-02-24T07:34:01;12.03;;;5.80;;
18883;SDS011;9574;47.282;9.640;2023-02-24T07:36:28;11.73;;;5.30;;
18883;SDS011;9574;47.282;9.640;2023-02-24T07:39:03;16.77;;;6.67;;
18883;SDS011;9574;47.282;9.640;2023-02-24T07:41:33;28.50;;;10.50;;
18883;SDS011;9574;47.282;9.640;2023-02-24T07:44:01;19.00;;;6.90;;
18883;SDS011;9574;47.282;9.640;2023-02-24T07:46:32;15.97;;;5.73;;
18883;SDS011;9574;47.282;9.640;2023-02-24T07:48:59;10.00;;;4.33;;
18883;SDS011;9574;47.282;9.640;2023-02-24T07:51:28;15.50;;;5.10;;
18883;SDS011;9574;47.282;9.640;2023-02-24T07:53:57;23.13;;;7.47;;
18883;SDS011;9574;47.282;9.640;2023-02-24T07:56:29;11.77;;;5.20;;
18883;SDS011;9574;47.282;9.640;2023-02-24T07:58:58;14.70;;;4.70;;
18883;SDS011;9574;47.282;9.640;2023-02-24T08:01:27;7.80;;;3.57;;
18883;SDS011;9574;47.282;9.640;2023-02-24T08:03:55;9.70;;;4.40;;
18883;SDS011;9574;47.282;9.640;2023-02-24T08:06:25;9.43;;;4.27;;
18883;SDS011;9574;47.282;9.640;2023-02-24T08:09:02;6.97;;;3.83;;
18883;SDS011;9574;47.282;9.640;2023-02-24T08:11:42;9.87;;;3.80;;
18883;SDS011;9574;47.282;9.640;2023-02-24T08:14:11;14.53;;;4.73;;
18883;SDS011;9574;47.282;9.640;2023-02-24T08:16:39;9.80;;;4.60;;
18883;SDS011;9574;47.282;9.640;2023-02-24T08:19:08;10.40;;;5.10;;
18883;SDS011;9574;47.282;9.640;2023-02-24T08:21:37;7.93;;;4.90;;
18883;SDS011;9574;47.282;9.640;2023-02-24T08:24:05;12.53;;;3.90;;
18883;SDS011;9574;47.282;9.640;2023-02-24T08:26:43;5.97;;;3.47;;
18883;SDS011;9574;47.282;9.640;2023-02-24T08:29:12;6.70;;;3.43;;
18883;SDS011;9574;47.282;9.640;2023-02-24T08:31:44;9.67;;;4.63;;
18883;SDS011;9574;47.282;9.640;2023-02-24T08:34:11;5.47;;;3.30;;
18883;SDS011;9574;47.282;9.640;2023-02-24T08:36:40;13.60;;;4.13;;
18883;SDS011;9574;47.282;9.640;2023-02-24T08:39:11;8.63;;;3.77;;
18883;SDS011;9574;47.282;9.640;2023-02-24T08:41:38;7.33;;;4.27;;
18883;SDS011;9574;47.282;9.640;2023-02-24T08:44:17;8.07;;;3.67;;
18883;SDS011;9574;47.282;9.640;2023-02-24T08:46:44;8.37;;;3.77;;
18883;SDS011;9574;47.282;9.640;2023-02-24T08:49:13;7.57;;;2.83;;
18883;SDS011;9574;47.282;9.640;2023-02-24T08:51:41;6.43;;;3.00;;
18883;SDS011;9574;47.282;9.640;2023-02-24T08:54:10;11.77;;;3.93;;
18883;SDS011;9574;47.282;9.640;2023-02-24T08:56:41;11.17;;;5.07;;
18883;SDS011;9574;47.282;9.640;2023-02-24T08:59:13;9.23;;;3.90;;
18883;SDS011;9574;47.282;9.640;2023-02-24T09:02:03;11.40;;;3.70;;
18883;SDS011;9574;47.282;9.640;2023-02-24T09:04:49;8.47;;;3.40;;
18883;SDS011;9574;47.282;9.640;2023-02-24T09:07:19;7.07;;;3.40;;
18883;SDS011;9574;47.282;9.640;2023-02-24T09:09:47;10.07;;;3.50;;
18883;SDS011;9574;47.282;9.640;2023-02-24T09:12:14;8.80;;;3.13;;
18883;SDS011;9574;47.282;9.640;2023-02-24T09:14:48;11.90;;;4.13;;
18883;SDS011;9574;47.282;9.640;2023-02-24T09:17:21;8.13;;;3.50;;
18883;SDS011;9574;47.282;9.640;2023-02-24T09:20:05;5.40;;;3.23;;
18883;SDS011;9574;47.282;9.640;2023-02-24T09:23:20;8.73;;;2.80;;
18883;SDS011;9574;47.282;9.640;2023-02-24T09:25:54;6.43;;;3.23;;
18883;SDS011;9574;47.282;9.640;2023-02-24T09:28:21;4.90;;;3.30;;
18883;SDS011;9574;47.282;9.640;2023-02-24T09:30:50;4.03;;;2.50;;
18883;SDS011;9574;47.282;9.640;2023-02-24T09:33:21;5.83;;;3.60;;
18883;SDS011;9574;47.282;9.640;2023-02-24T09:35:50;5.87;;;2.83;;
18883;SDS011;9574;47.282;9.640;2023-02-24T09:38:27;9.60;;;3.57;;
18883;SDS011;9574;47.282;9.640;2023-02-24T09:41:18;6.37;;;3.27;;
18883;SDS011;9574;47.282;9.640;2023-02-24T09:43:55;5.90;;;3.47;;
18883;SDS011;9574;47.282;9.640;2023-02-24T09:46:27;4.70;;;2.53;;
18883;SDS011;9574;47.282;9.640;2023-02-24T09:49:06;6.27;;;2.70;;
18883;SDS011;9574;47.282;9.640;2023-02-24T09:51:41;5.90;;;3.07;;
18883;SDS011;9574;47.282;9.640;2023-02-24T09:54:13;6.73;;;2.30;;
18883;SDS011;9574;47.282;9.640;2023-02-24T09:56:45;4.70;;;2.40;;
18883;SDS011;9574;47.282;9.640;2023-02-24T09:59:33;5.33;;;2.60;;
18883;SDS011;9574;47.282;9.640;2023-02-24T10:02:18;7.40;;;3.17;;
18883;SDS011;9574;47.282;9.640;2023-02-24T10:04:59;4.50;;;2.50;;
18883;SDS011;9574;47.282;9.640;2023-02-24T10:07:32;7.70;;;2.50;;
18883;SDS011;9574;47.282;9.640;2023-02-24T10:10:05;10.50;;;2.53;;
18883;SDS011;9574;47.282;9.640;2023-02-24T10:12:45;7.37;;;2.60;;
18883;SDS011;9574;47.282;9.640;2023-02-24T10:15:17;12.63;;;2.80;;
18883;SDS011;9574;47.282;9.640;2023-02-24T10:18:25;12.63;;;3.20;;
18883;SDS011;9574;47.282;9.640;2023-02-24T10:20:58;9.77;;;3.43;;
18883;SDS011;9574;47.282;9.640;2023-02-24T10:23:33;11.00;;;3.33;;
18883;SDS011;9574;47.282;9.640;2023-02-24T10:26:12;4.23;;;2.63;;
18883;SDS011;9574;47.282;9.640;2023-02-24T10:28:57;8.37;;;3.17;;
18883;SDS011;9574;47.282;9.640;2023-02-24T10:31:33;5.17;;;3.30;;
18883;SDS011;9574;47.282;9.640;2023-02-24T10:34:10;6.80;;;3.00;;
18883;SDS011;9574;47.282;9.640;2023-02-24T10:36:45;15.03;;;2.97;;
18883;SDS011;9574;47.282;9.640;2023-02-24T10:39:14;7.57;;;3.07;;
18883;SDS011;9574;47.282;9.640;2023-02-24T10:41:45;5.27;;;2.87;;
18883;SDS011;9574;47.282;9.640;2023-02-24T10:44:18;6.80;;;2.53;;
18883;SDS011;9574;47.282;9.640;2023-02-24T10:46:57;5.53;;;2.60;;
18883;SDS011;9574;47.282;9.640;2023-02-24T10:49:38;8.07;;;3.10;;
18883;SDS011;9574;47.282;9.640;2023-02-24T10:52:10;6.73;;;2.90;;
18883;SDS011;9574;47.282;9.640;2023-02-24T10:54:57;7.40;;;3.63;;
18883;SDS011;9574;47.282;9.640;2023-02-24T10:57:32;10.50;;;4.43;;
18883;SDS011;9574;47.282;9.640;2023-02-24T11:00:13;12.60;;;5.53;;
18883;SDS011;9574;47.282;9.640;2023-02-24T11:02:56;12.93;;;5.47;;
18883;SDS011;9574;47.282;9.640;2023-02-24T11:05:34;12.17;;;4.80;;
18883;SDS011;9574;47.282;9.640;2023-02-24T11:08:31;10.77;;;4.20;;
18883;SDS011;9574;47.282;9.640;2023-02-24T11:11:08;11.80;;;3.93;;
18883;SDS011;9574;47.282;9.640;2023-02-24T11:13:46;8.70;;;4.00;;
18883;SDS011;9574;47.282;9.640;2023-02-24T11:16:39;5.43;;;3.03;;
18883;SDS011;9574;47.282;9.640;2023-02-24T11:19:32;11.57;;;4.10;;
18883;SDS011;9574;47.282;9.640;2023-02-24T11:22:04;10.43;;;5.10;;
18883;SDS011;9574;47.282;9.640;2023-02-24T11:24:34;7.40;;;3.67;;
18883;SDS011;9574;47.282;9.640;2023-02-24T11:27:03;7.67;;;3.60;;
18883;SDS011;9574;47.282;9.640;2023-02-24T11:32:32;9.63;;;3.20;;
18883;SDS011;9574;47.282;9.640;2023-02-24T11:35:11;8.70;;;3.77;;
18883;SDS011;9574;47.282;9.640;2023-02-24T11:37:48;8.20;;;3.63;;
18883;SDS011;9574;47.282;9.640;2023-02-24T11:40:25;9.47;;;3.90;;
18883;SDS011;9574;47.282;9.640;2023-02-24T11:42:57;9.43;;;3.97;;
18883;SDS011;9574;47.282;9.640;2023-02-24T11:45:27;9.07;;;3.80;;
18883;SDS011;9574;47.282;9.640;2023-02-24T11:47:58;9.03;;;3.20;;
18883;SDS011;9574;47.282;9.640;2023-02-24T11:50:30;9.50;;;3.43;;
18883;SDS011;9574;47.282;9.640;2023-02-24T11:53:04;9.70;;;3.87;;
18883;SDS011;9574;47.282;9.640;2023-02-24T11:55:46;9.00;;;4.10;;
18883;SDS011;9574;47.282;9.640;2023-02-24T11:58:23;8.50;;;4.10;;
18883;SDS011;9574;47.282;9.640;2023-02-24T12:00:56;9.37;;;4.57;;
18883;SDS011;9574;47.282;9.640;2023-02-24T12:03:30;8.47;;;4.40;;
18883;SDS011;9574;47.282;9.640;2023-02-24T12:06:06;8.97;;;4.13;;
18883;SDS011;9574;47.282;9.640;2023-02-24T12:08:40;9.32;;;4.63;;
18883;SDS011;9574;47.282;9.640;2023-02-24T12:11:13;9.20;;;4.88;;
18883;SDS011;9574;47.282;9.640;2023-02-24T12:13:47;9.38;;;5.22;;
18883;SDS011;9574;47.282;9.640;2023-02-24T12:16:20;13.68;;;5.50;;
18883;SDS011;9574;47.282;9.640;2023-02-24T12:18:51;11.73;;;5.45;;
18883;SDS011;9574;47.282;9.640;2023-02-24T12:21:24;10.85;;;5.55;;
18883;SDS011;9574;47.282;9.640;2023-02-24T12:23:55;11.23;;;6.07;;
18883;SDS011;9574;47.282;9.640;2023-02-24T12:26:33;12.67;;;6.87;;
18883;SDS011;9574;47.282;9.640;2023-02-24T12:32:14;13.50;;;6.77;;
18883;SDS011;9574;47.282;9.640;2023-02-24T12:34:51;10.87;;;6.90;;
18883;SDS011;9574;47.282;9.640;2023-02-24T12:37:41;10.93;;;6.63;;
18883;SDS011;9574;47.282;9.640;2023-02-24T12:40:24;13.17;;;7.30;;
18883;SDS011;9574;47.282;9.640;2023-02-24T12:43:02;11.07;;;7.20;;
18883;SDS011;9574;47.282;9.640;2023-02-24T12:45:39;14.43;;;6.83;;
18883;SDS011;9574;47.282;9.640;2023-02-24T12:48:22;13.27;;;7.23;;
18883;SDS011;9574;47.282;9.640;2023-02-24T12:51:06;11.87;;;6.90;;
18883;SDS011;9574;47.282;9.640;2023-02-24T12:53:38;14.33;;;7.37;;
18883;SDS011;9574;47.282;9.640;2023-02-24T12:56:12;15.00;;;7.73;;
18883;SDS011;9574;47.282;9.640;2023-02-24T12:58:46;18.17;;;7.97;;
18883;SDS011;9574;47.282;9.640;2023-02-24T13:01:18;12.33;;;7.20;;
18883;SDS011;9574;47.282;9.640;2023-02-24T13:04:03;13.40;;;8.10;;
18883;SDS011;9574;47.282;9.640;2023-02-24T13:06:43;14.33;;;7.90;;
18883;SDS011;9574;47.282;9.640;2023-02-24T13:09:19;16.23;;;8.10;;
18883;SDS011;9574;47.282;9.640;2023-02-24T13:11:53;13.50;;;7.37;;
18883;SDS011;9574;47.282;9.640;2023-02-24T13:14:26;13.67;;;7.23;;
18883;SDS011;9574;47.282;9.640;2023-02-24T13:17:04;15.20;;;8.33;;
18883;SDS011;9574;47.282;9.640;2023-02-24T13:19:41;20.83;;;8.17;;
18883;SDS011;9574;47.282;9.640;2023-02-24T13:22:18;14.57;;;8.07;;
18883;SDS011;9574;47.282;9.640;2023-02-24T13:24:55;19.77;;;8.40;;
18883;SDS011;9574;47.282;9.640;2023-02-24T13:27:38;17.30;;;8.13;;
18883;SDS011;9574;47.282;9.640;2023-02-24T13:32:59;12.87;;;7.97;;
18883;SDS011;9574;47.282;9.640;2023-02-24T13:35:30;19.93;;;9.67;;
18883;SDS011;9574;47.282;9.640;2023-02-24T13:38:09;14.23;;;7.63;;
18883;SDS011;9574;47.282;9.640;2023-02-24T13:40:49;17.20;;;8.07;;
18883;SDS011;9574;47.282;9.640;2023-02-24T13:43:21;13.23;;;8.00;;
18883;SDS011;9574;47.282;9.640;2023-02-24T13:45:55;15.97;;;8.07;;
18883;SDS011;9574;47.282;9.640;2023-02-24T13:51:20;13.10;;;9.07;;
18883;SDS011;9574;47.282;9.640;2023-02-24T13:54:27;23.83;;;11.47;;
18883;SDS011;9574;47.282;9.640;2023-02-24T13:57:21;15.83;;;9.20;;
18883;SDS011;9574;47.282;9.640;2023-02-24T14:00:07;16.90;;;8.70;;
18883;SDS011;9574;47.282;9.640;2023-02-24T14:02:47;20.60;;;11.30;;
18883;SDS011;9574;47.282;9.640;2023-02-24T14:05:18;19.23;;;10.53;;
18883;SDS011;9574;47.282;9.640;2023-02-24T14:07:48;22.50;;;10.03;;
18883;SDS011;9574;47.282;9.640;2023-02-24T14:10:17;15.33;;;7.47;;
18883;SDS011;9574;47.282;9.640;2023-02-24T14:12:47;15.10;;;8.00;;
18883;SDS011;9574;47.282;9.640;2023-02-24T14:15:17;10.80;;;6.87;;
18883;SDS011;9574;47.282;9.640;2023-02-24T14:17:54;16.13;;;7.47;;
18883;SDS011;9574;47.282;9.640;2023-02-24T14:20:24;16.57;;;9.33;;
18883;SDS011;9574;47.282;9.640;2023-02-24T14:22:53;15.30;;;8.33;;
18883;SDS011;9574;47.282;9.640;2023-02-24T14:25:23;15.73;;;9.07;;
18883;SDS011;9574;47.282;9.640;2023-02-24T14:27:53;17.23;;;8.07;;
18883;SDS011;9574;47.282;9.640;2023-02-24T14:30:22;15.40;;;7.93;;
18883;SDS011;9574;47.282;9.640;2023-02-24T14:32:51;12.67;;;7.00;;
18883;SDS011;9574;47.282;9.640;2023-02-24T14:35:25;18.30;;;8.83;;
18883;SDS011;9574;47.282;9.640;2023-02-24T14:38:26;17.27;;;8.63;;
18883;SDS011;9574;47.282;9.640;2023-02-24T14:40:54;17.93;;;8.87;;
18883;SDS011;9574;47.282;9.640;2023-02-24T14:43:21;18.17;;;10.63;;
18883;SDS011;9574;47.282;9.640;2023-02-24T14:45:49;15.80;;;9.43;;
18883;SDS011;9574;47.282;9.640;2023-02-24T14:48:23;24.00;;;8.47;;
18883;SDS011;9574;47.282;9.640;2023-02-24T14:50:53;17.43;;;8.60;;
18883;SDS011;9574;47.282;9.640;2023-02-24T14:53:25;15.57;;;7.20;;
18883;SDS011;9574;47.282;9.640;2023-02-24T14:55:58;17.13;;;9.00;;
18883;SDS011;9574;47.282;9.640;2023-02-24T14:58:29;16.97;;;8.57;;
18883;SDS011;9574;47.282;9.640;2023-02-24T15:01:02;16.07;;;9.17;;
18883;SDS011;9574;47.282;9.640;2023-02-24T15:03:34;18.47;;;8.13;;
18883;SDS011;9574;47.282;9.640;2023-02-24T15:06:04;21.80;;;7.70;;
18883;SDS011;9574;47.282;9.640;2023-02-24T15:08:33;14.40;;;8.93;;
18883;SDS011;9574;47.282;9.640;2023-02-24T15:11:05;14.90;;;7.87;;
18883;SDS011;9574;47.282;9.640;2023-02-24T15:13:44;17.57;;;8.20;;
18883;SDS011;9574;47.282;9.640;2023-02-24T15:16:16;18.17;;;9.50;;
18883;SDS011;9574;47.282;9.640;2023-02-24T15:18:49;14.37;;;8.17;;
18883;SDS011;9574;47.282;9.640;2023-02-24T15:21:18;17.10;;;8.70;;
18883;SDS011;9574;47.282;9.640;2023-02-24T15:23:48;16.37;;;7.93;;
18883;SDS011;9574;47.282;9.640;2023-02-24T15:26:24;18.10;;;9.03;;
18883;SDS011;9574;47.282;9.640;2023-02-24T15:28:57;18.60;;;8.83;;
18883;SDS011;9574;47.282;9.640;2023-02-24T15:31:25;18.13;;;8.07;;
18883;SDS011;9574;47.282;9.640;2023-02-24T15:33:55;17.23;;;8.27;;
18883;SDS011;9574;47.282;9.640;2023-02-24T15:36:25;25.63;;;9.40;;
18883;SDS011;9574;47.282;9.640;2023-02-24T15:38:57;15.87;;;7.47;;
18883;SDS011;9574;47.282;9.640;2023-02-24T15:41:36;18.73;;;8.70;;
18883;SDS011;9574;47.282;9.640;2023-02-24T15:44:05;16.67;;;8.33;;
18883;SDS011;9574;47.282;9.640;2023-02-24T15:46:46;14.50;;;8.40;;